Soderville, Minnesota
Current Conditions -  °F | °C
As of 2:45 PM on Sunday 21 Dec 2014 (Local Time) from KANE Reporting Station
Light Rain Light Rain  
Wind Chill: 30°   Ceiling: 600
Heat Index: 37°   Visibility: 3mi
Dew Point: 37°   Wind: 12mph
Humidity: 100%   Direction: 150°SSE
Pressure: 29.74"   Gusts: NA
Location:  45.2551°N, 93.2664°W
Report Text: KANE 212045Z 15010KT 3 SM -RA OVC006 03/03 A2974
Loading
Personal Weather Stations






























Interactive Weather Map New forecast layout! Learn more

10-Day Weather Forecast

Advertisements
Track Severe Weather on mobile